createdAt,value
2019-02-19T00:00:51.827Z,22.87
2019-02-19T00:06:15.862Z,22.07
2019-02-19T00:11:40.866Z,21.23
2019-02-19T00:17:04.751Z,23.70
2019-02-19T00:22:28.681Z,22.93
2019-02-19T00:27:52.291Z,23.67
2019-02-19T00:33:17.453Z,22.87
2019-02-19T00:38:41.561Z,21.97
2019-02-19T00:44:06.558Z,21.50
2019-02-19T00:49:30.190Z,21.53
2019-02-19T00:54:54.402Z,20.87
2019-02-19T01:00:18.839Z,20.53
2019-02-19T01:05:43.581Z,21.53
2019-02-19T01:11:08.168Z,20.83
2019-02-19T01:16:32.053Z,19.20
2019-02-19T01:21:55.891Z,19.63
2019-02-19T01:27:20.165Z,21.63
2019-02-19T01:32:44.025Z,22.20
2019-02-19T01:38:07.984Z,19.77
2019-02-19T01:43:31.742Z,19.60
2019-02-19T01:48:56.555Z,18.60
2019-02-19T01:54:20.935Z,18.43
2019-02-19T01:59:45.649Z,19.00
2019-02-19T02:05:10.121Z,17.70
2019-02-19T02:10:34.882Z,19.17
2019-02-19T02:15:58.825Z,17.87
2019-02-19T02:21:22.715Z,15.73
2019-02-19T02:26:46.501Z,14.60
2019-02-19T02:32:10.700Z,16.90
2019-02-19T02:37:35.289Z,18.37
2019-02-19T02:42:59.674Z,16.53
2019-02-19T02:48:23.975Z,17.77
2019-02-19T02:53:48.566Z,17.17
2019-02-19T02:59:13.699Z,17.43
2019-02-19T03:04:37.386Z,17.30
2019-02-19T03:10:01.822Z,16.47
2019-02-19T03:15:27.254Z,15.93
2019-02-19T03:20:51.493Z,17.20
2019-02-19T03:26:15.580Z,16.53
2019-02-19T03:31:39.508Z,15.50
2019-02-19T03:37:03.658Z,15.40
2019-02-19T03:42:29.118Z,14.97
2019-02-19T03:47:53.677Z,15.43
2019-02-19T03:53:18.431Z,14.73
2019-02-19T03:58:43.275Z,16.00
2019-02-19T04:04:07.818Z,15.33
2019-02-19T04:09:32.974Z,14.57
2019-02-19T04:14:57.265Z,14.73
2019-02-19T04:20:21.619Z,15.03
2019-02-19T04:25:46.068Z,14.63
2019-02-19T04:31:10.821Z,13.93
2019-02-19T04:36:35.219Z,14.73
2019-02-19T04:41:59.847Z,14.07
2019-02-19T04:47:23.915Z,16.53
2019-02-19T04:52:48.594Z,15.80
2019-02-19T04:58:12.650Z,14.33
2019-02-19T05:03:37.841Z,14.30
2019-02-19T05:09:02.289Z,14.47
2019-02-19T05:14:28.341Z,14.93
2019-02-19T05:19:52.867Z,13.57
2019-02-19T05:25:16.507Z,14.43
2019-02-19T05:30:43.049Z,13.70
2019-02-19T05:36:06.614Z,14.93
2019-02-19T05:41:31.228Z,14.97
2019-02-19T05:46:55.822Z,14.83
2019-02-19T05:52:20.295Z,15.10
2019-02-19T05:57:45.092Z,15.03
2019-02-19T06:03:09.199Z,15.87
2019-02-19T06:08:34.118Z,14.80
2019-02-19T06:13:58.471Z,14.73
2019-02-19T06:19:23.264Z,14.80
2019-02-19T06:24:47.123Z,14.17
2019-02-19T06:30:12.686Z,14.50
2019-02-19T06:35:37.283Z,14.83
2019-02-19T06:41:02.015Z,13.23
2019-02-19T06:46:27.047Z,13.73
2019-02-19T06:51:50.429Z,14.13
2019-02-19T06:57:15.097Z,14.10
2019-02-19T07:03:16.453Z,14.87
2019-02-19T07:08:40.426Z,13.57
2019-02-19T07:14:04.817Z,15.73
2019-02-19T07:19:29.044Z,15.10
2019-02-19T07:24:54.420Z,14.50
2019-02-19T07:30:18.104Z,14.63
2019-02-19T07:35:42.753Z,15.03
2019-02-19T07:41:06.567Z,14.20
2019-02-19T07:46:30.942Z,14.57
2019-02-19T07:51:55.856Z,13.00
2019-02-19T07:57:19.603Z,14.70
2019-02-19T08:02:44.072Z,15.10
2019-02-19T08:08:08.890Z,13.40
2019-02-19T08:13:33.724Z,14.17
2019-02-19T08:18:57.499Z,12.97
2019-02-19T08:24:21.958Z,13.67
2019-02-19T08:29:45.905Z,13.83
2019-02-19T08:35:10.516Z,13.63
2019-02-19T08:40:34.821Z,13.70
2019-02-19T08:45:58.699Z,13.53
2019-02-19T08:51:23.166Z,13.47
2019-02-19T08:56:47.608Z,13.53
2019-02-19T09:02:11.807Z,13.60
2019-02-19T09:07:36.295Z,13.03
2019-02-19T09:13:00.437Z,13.87
2019-02-19T09:18:25.247Z,13.67
2019-02-19T09:23:50.336Z,14.90
2019-02-19T09:29:14.714Z,14.63
2019-02-19T09:34:39.181Z,14.60
2019-02-19T09:40:04.079Z,14.50
2019-02-19T09:45:28.642Z,13.93
2019-02-19T09:50:53.434Z,16.77
2019-02-19T09:56:18.012Z,14.77
2019-02-19T10:01:41.959Z,15.33
2019-02-19T10:07:06.858Z,16.13
2019-02-19T10:12:31.411Z,18.73
2019-02-19T10:17:55.546Z,18.20
2019-02-19T10:23:20.284Z,21.90
2019-02-19T10:28:44.619Z,21.37
2019-02-19T10:34:08.574Z,22.67
2019-02-19T10:39:32.429Z,22.50
2019-02-19T10:44:56.877Z,24.47
2019-02-19T10:50:21.763Z,22.73
2019-02-19T10:55:45.683Z,22.07
2019-02-19T11:01:09.627Z,23.67
2019-02-19T11:06:34.137Z,24.20
2019-02-19T11:11:58.176Z,23.30
2019-02-19T11:17:21.885Z,22.10
2019-02-19T11:22:46.600Z,22.17
2019-02-19T11:28:12.263Z,22.83
2019-02-19T11:33:36.735Z,21.40
2019-02-19T11:39:01.302Z,22.00
2019-02-19T11:44:26.266Z,21.63
2019-02-19T11:49:50.003Z,19.37
2019-02-19T11:55:14.787Z,19.53
2019-02-19T12:00:40.610Z,16.97
2019-02-19T12:06:05.352Z,18.33
2019-02-19T12:11:29.964Z,18.40
2019-02-19T12:16:54.833Z,18.00
2019-02-19T12:22:18.726Z,18.10
2019-02-19T12:27:43.019Z,17.97
2019-02-19T12:33:07.725Z,17.33
2019-02-19T12:38:31.669Z,18.27
2019-02-19T12:43:56.597Z,18.27
2019-02-19T12:49:21.365Z,18.73
2019-02-19T12:54:45.145Z,17.87
2019-02-19T13:00:11.762Z,18.67
2019-02-19T13:05:35.455Z,18.93
2019-02-19T13:11:00.042Z,18.97
2019-02-19T13:16:24.887Z,17.73
2019-02-19T13:21:49.621Z,17.77
2019-02-19T13:27:13.460Z,17.47
2019-02-19T13:32:37.962Z,16.87
2019-02-19T13:38:02.411Z,17.50
2019-02-19T13:43:26.230Z,18.77
2019-02-19T13:48:50.032Z,17.17
2019-02-19T13:54:21.749Z,17.80
2019-02-19T13:59:46.529Z,18.40
2019-02-19T14:05:11.481Z,18.83
2019-02-19T14:10:36.275Z,15.90
2019-02-19T14:16:09.470Z,16.07
2019-02-19T14:21:58.777Z,14.87
2019-02-19T14:27:33.404Z,14.77
2019-02-19T14:33:22.416Z,14.00
2019-02-19T14:39:07.810Z,13.20
2019-02-19T14:44:51.379Z,13.03
2019-02-19T14:50:44.902Z,14.20
2019-02-19T14:56:27.440Z,13.80
2019-02-19T15:02:08.079Z,13.50
2019-02-19T15:07:44.919Z,13.80
2019-02-19T15:13:24.191Z,13.13
2019-02-19T15:19:06.640Z,14.37
2019-02-19T15:24:55.323Z,13.57
2019-02-19T15:30:40.095Z,12.90
2019-02-19T15:36:23.831Z,13.93
2019-02-19T15:42:05.459Z,11.87
2019-02-19T15:47:47.397Z,11.77
2019-02-19T15:53:21.489Z,10.70
2019-02-19T15:58:53.262Z,11.27
2019-02-19T16:04:23.809Z,10.17
2019-02-19T16:09:54.893Z,10.00
2019-02-19T16:15:46.350Z,9.50
2019-02-19T16:21:45.136Z,8.27
2019-02-19T16:27:19.166Z,8.67
2019-02-19T16:33:02.982Z,8.23
2019-02-19T16:39:01.168Z,8.27
2019-02-19T16:44:40.757Z,8.40
2019-02-19T16:50:28.190Z,8.50
2019-02-19T16:56:13.999Z,9.40
2019-02-19T17:01:55.823Z,7.70
2019-02-19T17:07:37.478Z,8.03
2019-02-19T17:13:14.548Z,6.73
2019-02-19T17:19:03.709Z,7.50
2019-02-19T17:24:46.525Z,6.60
2019-02-19T17:30:29.633Z,7.37
2019-02-19T17:36:12.699Z,6.60
2019-02-19T17:42:00.035Z,6.60
2019-02-19T17:47:45.717Z,5.53
2019-02-19T17:53:27.242Z,5.43
2019-02-19T17:59:03.779Z,5.23
2019-02-19T18:04:37.734Z,5.43
2019-02-19T18:10:15.123Z,5.93
2019-02-19T18:15:50.581Z,4.73
2019-02-19T18:21:14.373Z,4.70
2019-02-19T18:26:38.195Z,4.43
2019-02-19T18:32:02.655Z,4.33
2019-02-19T18:37:26.361Z,4.20
2019-02-19T18:42:50.015Z,4.03
2019-02-19T18:48:16.047Z,4.33
2019-02-19T18:53:39.842Z,3.73
2019-02-19T18:59:06.225Z,3.70
2019-02-19T19:04:30.590Z,4.23
2019-02-19T19:09:54.392Z,4.20
2019-02-19T19:15:18.001Z,5.27
2019-02-19T19:20:42.685Z,4.70
2019-02-19T19:26:06.990Z,4.57
2019-02-19T19:31:33.928Z,4.63
2019-02-19T19:36:58.789Z,4.63
2019-02-19T19:42:23.502Z,4.73
2019-02-19T19:47:47.372Z,5.10
2019-02-19T19:53:11.824Z,5.93
2019-02-19T19:58:36.467Z,6.13
2019-02-19T20:04:00.784Z,6.90
2019-02-19T20:09:25.579Z,7.73
2019-02-19T20:14:49.258Z,8.70
2019-02-19T20:20:13.749Z,6.77
2019-02-19T20:25:38.472Z,7.20
2019-02-19T20:31:02.997Z,6.70
2019-02-19T20:36:27.331Z,7.50
2019-02-19T20:41:51.421Z,6.37
2019-02-19T20:47:16.497Z,7.77
2019-02-19T20:52:41.161Z,6.90
2019-02-19T20:58:05.885Z,7.37
2019-02-19T21:03:30.085Z,6.80
2019-02-19T21:08:54.899Z,7.13
2019-02-19T21:14:19.145Z,7.87
2019-02-19T21:19:43.981Z,7.10
2019-02-19T21:25:09.204Z,6.73
2019-02-19T21:30:33.715Z,7.53
2019-02-19T21:35:58.894Z,7.50
2019-02-19T21:41:23.297Z,7.53
2019-02-19T21:46:47.496Z,7.30
2019-02-19T21:52:12.153Z,6.53
2019-02-19T21:57:36.793Z,7.30
2019-02-19T22:03:01.074Z,8.13
2019-02-19T22:08:26.010Z,6.57
2019-02-19T22:13:51.142Z,6.93
2019-02-19T22:19:15.460Z,5.60
2019-02-19T22:24:41.236Z,5.10
2019-02-19T22:30:05.517Z,3.90
2019-02-19T22:35:29.556Z,4.67
2019-02-19T22:40:55.406Z,3.80
2019-02-19T22:46:20.242Z,3.30
2019-02-19T22:51:43.914Z,3.43
2019-02-19T22:57:08.074Z,3.60
2019-02-19T23:02:33.504Z,3.03
2019-02-19T23:07:58.426Z,3.60
2019-02-19T23:13:22.733Z,3.80
2019-02-19T23:18:46.386Z,5.30
2019-02-19T23:24:10.571Z,6.60
2019-02-19T23:29:34.174Z,6.47
2019-02-19T23:35:14.594Z,6.63
2019-02-19T23:40:38.429Z,7.57
2019-02-19T23:46:02.465Z,7.77
2019-02-19T23:51:26.916Z,7.17
2019-02-19T23:56:51.330Z,8.53
